Time;durP1;ratioP1;P1;durP2;ratioP2;P2;SDS_P1;SDS_P2;PMS_P1;PMS_P2;Temp;Humidity;BMP_temperature;BMP_pressure;BME280_temperature;BME280_humidity;BME280_pressure;Samples;Min_cycle;Max_cycle;Signal;HPM_P1;HPM_P2
2022/03/12 00:00:48;;;;;;;;;;;-0.20;89.40;;;;;;5030973;28;19909;-74
2022/03/12 00:03:14;;;;;;;;;;;-0.20;89.10;;;;;;5030877;28;19916;-73
2022/03/12 00:05:55;;;;;;;;;;;-0.30;90.70;;;;;;5031473;28;19982;-73
2022/03/12 00:08:27;;;;;;;;;;;-0.30;90.00;;;;;;5034344;28;19936;-73
2022/03/12 00:10:53;;;;;;;;;;;-0.30;90.40;;;;;;5030588;28;19917;-73
2022/03/12 00:13:22;;;;;;;;;;;-0.30;90.50;;;;;;5037047;28;20378;-73
2022/03/12 00:15:50;;;;;;;;;;;-0.30;90.10;;;;;;5030298;28;19964;-73
2022/03/12 00:18:18;;;;;;;;;;;-0.20;90.10;;;;;;5030451;28;20277;-73
2022/03/12 00:20:47;;;;;;;;;;;-0.10;90.30;;;;;;5040254;28;19913;-73
2022/03/12 00:23:15;;;;;;;;;;;0.00;90.20;;;;;;5042350;28;20391;-73
2022/03/12 00:25:43;;;;;;;;;;;0.10;89.80;;;;;;5032661;28;19931;-73
2022/03/12 00:28:09;;;;;;;;;;;0.00;90.10;;;;;;5032657;28;19909;-73
2022/03/12 00:30:35;;;;;;;;;;;-0.10;90.40;;;;;;5032683;28;19920;-72
2022/03/12 00:33:01;;;;;;;;;;;-0.10;90.50;;;;;;5032666;28;19909;-73
2022/03/12 00:35:27;;;;;;;;;;;0.00;90.30;;;;;;5032715;28;19909;-73
2022/03/12 00:37:53;;;;;;;;;;;-0.10;90.50;;;;;;5033432;28;19916;-73
2022/03/12 00:40:21;;;;;;;;;;;0.00;90.00;;;;;;5035183;28;19909;-72
2022/03/12 00:42:47;;;;;;;;;;;0.20;88.80;;;;;;5035137;28;19951;-72
2022/03/12 00:45:12;;;;;;;;;;;0.10;89.50;;;;;;5035021;28;19913;-73
2022/03/12 00:47:38;;;;;;;;;;;-0.10;90.10;;;;;;5035184;28;19963;-73
2022/03/12 00:50:04;;;;;;;;;;;-0.20;90.60;;;;;;5040190;28;20255;-73
2022/03/12 00:52:30;;;;;;;;;;;-0.10;90.80;;;;;;5043816;28;19983;-73
2022/03/12 00:54:55;;;;;;;;;;;-0.10;90.90;;;;;;5037132;28;19909;-73
2022/03/12 00:57:21;;;;;;;;;;;-0.10;90.80;;;;;;5035103;28;19909;-72
2022/03/12 00:59:46;;;;;;;;;;;-0.10;91.20;;;;;;5034907;28;19935;-72
2022/03/12 01:02:14;;;;;;;;;;;0.00;91.10;;;;;;5034752;28;19963;-74
2022/03/12 01:04:40;;;;;;;;;;;0.00;90.80;;;;;;5034538;28;19967;-73
2022/03/12 01:07:05;;;;;;;;;;;0.20;89.80;;;;;;5034894;28;19910;-72
2022/03/12 01:09:31;;;;;;;;;;;0.60;88.90;;;;;;5034591;28;19920;-72
2022/03/12 01:11:57;;;;;;;;;;;0.70;89.40;;;;;;5034585;28;20294;-73
2022/03/12 01:14:22;;;;;;;;;;;0.50;90.00;;;;;;5034394;28;19962;-72
2022/03/12 01:16:48;;;;;;;;;;;0.50;90.00;;;;;;5034602;28;20003;-73
2022/03/12 01:19:15;;;;;;;;;;;0.50;90.10;;;;;;5034439;28;19910;-73
2022/03/12 01:21:41;;;;;;;;;;;0.50;90.10;;;;;;5047269;28;20278;-72
2022/03/12 01:24:06;;;;;;;;;;;0.50;90.00;;;;;;5035879;28;19917;-73
2022/03/12 01:26:34;;;;;;;;;;;0.60;89.90;;;;;;5034504;28;20362;-73
2022/03/12 01:29:00;;;;;;;;;;;0.80;89.10;;;;;;5034423;28;19975;-72
2022/03/12 01:31:25;;;;;;;;;;;0.80;88.90;;;;;;5033405;28;19909;-72
2022/03/12 01:33:51;;;;;;;;;;;0.90;88.50;;;;;;5034192;28;19913;-72
2022/03/12 01:36:16;;;;;;;;;;;0.90;88.70;;;;;;5034409;28;19909;-73
2022/03/12 01:38:49;;;;;;;;;;;0.90;89.10;;;;;;5034139;28;19971;-73
2022/03/12 01:41:25;;;;;;;;;;;0.90;88.90;;;;;;5034177;28;20348;-73
2022/03/12 01:43:52;;;;;;;;;;;0.80;89.10;;;;;;5033882;28;19967;-73
2022/03/12 01:46:18;;;;;;;;;;;0.60;89.40;;;;;;5034100;28;19909;-73
2022/03/12 01:48:46;;;;;;;;;;;0.50;90.50;;;;;;5033958;28;20317;-73
2022/03/12 01:51:12;;;;;;;;;;;0.40;90.60;;;;;;5054376;28;20377;-73
2022/03/12 01:53:37;;;;;;;;;;;0.30;90.60;;;;;;5048275;28;19960;-73
2022/03/12 01:56:03;;;;;;;;;;;0.20;91.10;;;;;;5033980;28;19913;-73
2022/03/12 01:58:29;;;;;;;;;;;0.10;90.70;;;;;;5033840;28;20504;-73
2022/03/12 02:00:57;;;;;;;;;;;0.10;91.00;;;;;;5036150;28;20012;-73
2022/03/12 02:03:26;;;;;;;;;;;0.10;90.90;;;;;;5052561;28;19917;-73
2022/03/12 02:05:52;;;;;;;;;;;0.10;91.10;;;;;;5052800;28;19920;-73
2022/03/12 02:08:18;;;;;;;;;;;0.20;91.20;;;;;;5049655;28;19909;-73
2022/03/12 02:10:44;;;;;;;;;;;0.20;91.00;;;;;;5048832;28;19913;-72
2022/03/12 02:13:10;;;;;;;;;;;0.10;91.20;;;;;;5052671;28;19959;-72
2022/03/12 02:15:36;;;;;;;;;;;0.20;91.30;;;;;;5052470;28;19915;-72
2022/03/12 02:18:01;;;;;;;;;;;0.20;91.40;;;;;;5052504;28;19909;-72
2022/03/12 02:20:27;;;;;;;;;;;0.20;91.70;;;;;;5043975;28;19958;-72
2022/03/12 02:22:53;;;;;;;;;;;0.00;92.50;;;;;;5045611;28;19919;-72
2022/03/12 02:25:26;;;;;;;;;;;0.00;92.10;;;;;;5033124;28;19913;-72
2022/03/12 02:27:52;;;;;;;;;;;0.30;91.50;;;;;;5033247;28;20144;-71
2022/03/12 02:30:19;;;;;;;;;;;0.20;91.60;;;;;;5033250;28;20378;-72
2022/03/12 02:32:45;;;;;;;;;;;0.10;91.80;;;;;;5032956;28;19955;-72
2022/03/12 02:35:12;;;;;;;;;;;0.00;92.20;;;;;;5033044;28;19939;-72
2022/03/12 02:37:42;;;;;;;;;;;0.00;92.70;;;;;;5033118;28;19959;-72
2022/03/12 02:40:09;;;;;;;;;;;0.00;92.70;;;;;;5033014;28;19924;-72
2022/03/12 02:42:36;;;;;;;;;;;0.00;92.70;;;;;;5032882;28;19975;-72
2022/03/12 02:45:04;;;;;;;;;;;0.00;92.60;;;;;;5032601;28;20424;-72
2022/03/12 02:47:32;;;;;;;;;;;-0.10;93.00;;;;;;5032864;28;19983;-72
2022/03/12 02:49:59;;;;;;;;;;;-0.20;93.30;;;;;;5034341;28;19936;-72
2022/03/12 02:52:27;;;;;;;;;;;-0.30;93.80;;;;;;5045857;28;19913;-72
2022/03/12 02:54:53;;;;;;;;;;;-0.30;94.20;;;;;;5032568;28;19932;-72
2022/03/12 02:57:26;;;;;;;;;;;-0.20;93.90;;;;;;5032781;28;20437;-72
2022/03/12 02:59:53;;;;;;;;;;;-0.20;93.80;;;;;;5032501;28;19909;-72
2022/03/12 03:02:31;;;;;;;;;;;-0.20;93.90;;;;;;5032614;28;19932;-72
2022/03/12 03:04:57;;;;;;;;;;;-0.20;94.40;;;;;;5032351;28;20012;-72
2022/03/12 03:07:23;;;;;;;;;;;-0.20;94.20;;;;;;5032690;28;20001;-72
2022/03/12 03:09:49;;;;;;;;;;;-0.20;94.30;;;;;;5032506;28;19910;-72
2022/03/12 03:12:15;;;;;;;;;;;-0.30;94.40;;;;;;5032477;28;19913;-72
2022/03/12 03:14:48;;;;;;;;;;;-0.30;95.00;;;;;;5032167;28;19909;-72
2022/03/12 03:17:15;;;;;;;;;;;-0.20;94.70;;;;;;5032376;28;19928;-72
2022/03/12 03:19:41;;;;;;;;;;;-0.20;94.40;;;;;;5035985;28;19909;-72
2022/03/12 03:22:07;;;;;;;;;;;-0.20;94.70;;;;;;5041573;28;19979;-71
2022/03/12 03:24:32;;;;;;;;;;;-0.30;95.10;;;;;;5037838;28;20396;-71
2022/03/12 03:26:59;;;;;;;;;;;-0.40;95.50;;;;;;5041869;28;19909;-71
2022/03/12 03:29:26;;;;;;;;;;;-0.30;95.50;;;;;;5051509;28;19913;-71
2022/03/12 03:31:52;;;;;;;;;;;-0.30;95.50;;;;;;5051397;28;19909;-72
2022/03/12 03:34:17;;;;;;;;;;;-0.30;95.50;;;;;;5035563;28;19920;-72
2022/03/12 03:36:43;;;;;;;;;;;-0.40;96.00;;;;;;5047857;28;20293;-72
2022/03/12 03:39:09;;;;;;;;;;;-0.50;95.90;;;;;;5035973;28;19909;-72
2022/03/12 03:41:34;;;;;;;;;;;-0.70;96.20;;;;;;5031931;28;19955;-72
2022/03/12 03:44:00;;;;;;;;;;;-0.70;96.30;;;;;;5031273;28;20359;-71
2022/03/12 03:46:25;;;;;;;;;;;-0.80;96.70;;;;;;5034209;28;19924;-71
2022/03/12 03:48:52;;;;;;;;;;;-0.90;97.20;;;;;;5036567;28;19913;-72
2022/03/12 03:51:19;;;;;;;;;;;-1.00;98.00;;;;;;5041404;28;19909;-72
2022/03/12 03:53:44;;;;;;;;;;;-1.00;98.30;;;;;;5038804;28;20357;-72
2022/03/12 03:56:10;;;;;;;;;;;-1.10;98.60;;;;;;5036045;28;19963;-72
2022/03/12 03:58:36;;;;;;;;;;;-1.20;99.30;;;;;;5036023;28;19909;-72
2022/03/12 04:01:03;;;;;;;;;;;-1.20;99.80;;;;;;5034740;28;20412;-72
2022/03/12 04:03:32;;;;;;;;;;;-1.10;99.70;;;;;;5035798;28;19989;-72
2022/03/12 04:06:01;;;;;;;;;;;-1.20;98.50;;;;;;5035965;28;19944;-72
2022/03/12 04:08:27;;;;;;;;;;;-1.40;98.90;;;;;;5035863;28;19916;-72
2022/03/12 04:10:53;;;;;;;;;;;-1.30;98.80;;;;;;5035770;28;20366;-72
2022/03/12 04:13:20;;;;;;;;;;;-1.00;97.60;;;;;;5041332;28;20374;-72
2022/03/12 04:15:46;;;;;;;;;;;-1.00;97.40;;;;;;5035869;28;20004;-72
2022/03/12 04:18:13;;;;;;;;;;;-1.10;97.80;;;;;;5035803;28;19970;-72
2022/03/12 04:20:39;;;;;;;;;;;-1.10;97.90;;;;;;5046729;28;19909;-72
2022/03/12 04:23:05;;;;;;;;;;;-1.10;98.20;;;;;;5043174;28;19933;-72
2022/03/12 04:25:31;;;;;;;;;;;-1.10;98.20;;;;;;5035591;28;20008;-72
2022/03/12 04:27:57;;;;;;;;;;;-1.00;98.40;;;;;;5035710;28;20332;-72
2022/03/12 04:30:23;;;;;;;;;;;-1.00;98.10;;;;;;5054822;28;19909;-72
2022/03/12 04:32:49;;;;;;;;;;;-0.80;98.70;;;;;;5054722;28;19915;-72
2022/03/12 04:35:16;;;;;;;;;;;-0.70;97.50;;;;;;5054394;28;19913;-71
2022/03/12 04:37:41;;;;;;;;;;;-0.70;97.60;;;;;;5054529;28;19909;-71
2022/03/12 04:40:10;;;;;;;;;;;-0.60;97.40;;;;;;5053083;28;20202;-71
2022/03/12 04:42:38;;;;;;;;;;;-0.50;97.70;;;;;;5054324;28;19915;-71
2022/03/12 04:45:04;;;;;;;;;;;-0.40;97.20;;;;;;5054126;28;19959;-72
2022/03/12 04:47:30;;;;;;;;;;;-0.40;97.70;;;;;;5054678;28;19931;-72
2022/03/12 04:49:56;;;;;;;;;;;-0.40;97.90;;;;;;5047864;28;20001;-72
2022/03/12 04:52:22;;;;;;;;;;;-0.40;97.90;;;;;;5043519;28;19916;-72
2022/03/12 04:54:47;;;;;;;;;;;-0.30;97.70;;;;;;5035967;28;20313;-72
2022/03/12 04:57:13;;;;;;;;;;;-0.30;97.60;;;;;;5035045;28;19909;-71
2022/03/12 04:59:38;;;;;;;;;;;0.00;97.00;;;;;;5033633;28;19916;-72
2022/03/12 05:02:06;;;;;;;;;;;0.10;96.80;;;;;;5033592;28;19913;-72
2022/03/12 05:04:31;;;;;;;;;;;0.20;96.30;;;;;;5034307;28;19917;-72
2022/03/12 05:06:57;;;;;;;;;;;0.20;96.30;;;;;;5033798;28;20004;-71
2022/03/12 05:09:22;;;;;;;;;;;0.20;96.30;;;;;;5034882;28;19909;-72
2022/03/12 05:11:49;;;;;;;;;;;0.10;96.40;;;;;;5034611;28;19916;-72
2022/03/12 05:14:16;;;;;;;;;;;0.10;96.60;;;;;;5034421;28;19986;-72
2022/03/12 05:16:43;;;;;;;;;;;0.10;97.00;;;;;;5034639;28;19917;-72
2022/03/12 05:19:10;;;;;;;;;;;0.00;97.30;;;;;;5034569;28;20010;-72
2022/03/12 05:21:36;;;;;;;;;;;0.00;97.10;;;;;;5044320;28;19916;-72
2022/03/12 05:24:01;;;;;;;;;;;-0.10;97.20;;;;;;5040421;28;19913;-71
2022/03/12 05:26:27;;;;;;;;;;;-0.10;97.30;;;;;;5034466;28;20022;-72
2022/03/12 05:28:52;;;;;;;;;;;-0.10;97.20;;;;;;5034770;28;20018;-72
2022/03/12 05:31:18;;;;;;;;;;;-0.10;97.80;;;;;;5034712;28;19917;-72
2022/03/12 05:33:44;;;;;;;;;;;0.10;97.20;;;;;;5034213;28;19909;-72
2022/03/12 05:36:10;;;;;;;;;;;0.10;97.10;;;;;;5034183;28;19909;-72
2022/03/12 05:38:37;;;;;;;;;;;0.10;97.90;;;;;;5034261;28;20277;-72
2022/03/12 05:41:09;;;;;;;;;;;0.10;98.40;;;;;;5034197;28;20354;-72
2022/03/12 05:43:43;;;;;;;;;;;0.10;97.80;;;;;;5037759;28;19927;-72
2022/03/12 05:46:10;;;;;;;;;;;0.00;97.80;;;;;;5034625;28;19909;-72
2022/03/12 05:48:37;;;;;;;;;;;-0.20;98.30;;;;;;5033948;28;19999;-72
2022/03/12 05:51:04;;;;;;;;;;;-0.10;98.30;;;;;;5045516;28;20354;-72
2022/03/12 05:53:32;;;;;;;;;;;-0.10;98.40;;;;;;5040803;28;19915;-72
2022/03/12 05:55:58;;;;;;;;;;;-0.10;98.50;;;;;;5033877;28;20277;-71
2022/03/12 05:58:26;;;;;;;;;;;-0.10;98.90;;;;;;5033863;28;19909;-72
2022/03/12 06:00:54;;;;;;;;;;;-0.10;99.00;;;;;;5033832;28;20006;-72
2022/03/12 06:03:20;;;;;;;;;;;-0.10;99.50;;;;;;5033280;28;19909;-72
2022/03/12 06:05:50;;;;;;;;;;;-0.10;99.70;;;;;;5033978;28;19915;-72
2022/03/12 06:08:21;;;;;;;;;;;0.00;99.60;;;;;;5033651;28;20004;-72
2022/03/12 06:10:52;;;;;;;;;;;0.20;98.70;;;;;;5035187;28;19971;-72
2022/03/12 06:13:23;;;;;;;;;;;0.30;98.40;;;;;;5036128;28;20003;-72
2022/03/12 06:15:52;;;;;;;;;;;0.40;98.70;;;;;;5034449;28;19917;-72
2022/03/12 06:18:17;;;;;;;;;;;0.40;98.60;;;;;;5033653;28;19909;-72
2022/03/12 06:20:43;;;;;;;;;;;0.40;97.80;;;;;;5041001;28;19963;-72
2022/03/12 06:23:09;;;;;;;;;;;0.50;98.10;;;;;;5053721;28;19992;-71
2022/03/12 06:25:34;;;;;;;;;;;0.40;97.60;;;;;;5033507;28;19917;-72
2022/03/12 06:28:02;;;;;;;;;;;0.40;96.90;;;;;;5033354;28;19909;-72
2022/03/12 06:30:28;;;;;;;;;;;0.60;96.20;;;;;;5034270;28;19913;-72
2022/03/12 06:32:55;;;;;;;;;;;0.80;96.20;;;;;;5033592;28;19916;-72
2022/03/12 06:35:21;;;;;;;;;;;0.80;97.20;;;;;;5033496;28;19913;-71
2022/03/12 06:37:46;;;;;;;;;;;0.90;96.90;;;;;;5033453;28;19909;-71
2022/03/12 06:40:14;;;;;;;;;;;1.10;96.50;;;;;;5033355;28;20350;-72
2022/03/12 06:42:41;;;;;;;;;;;1.30;96.40;;;;;;5033720;28;19913;-72
2022/03/12 06:45:08;;;;;;;;;;;1.50;96.00;;;;;;5033275;28;20389;-72
2022/03/12 06:47:34;;;;;;;;;;;1.60;95.30;;;;;;5033365;28;19909;-72
2022/03/12 06:50:00;;;;;;;;;;;1.70;94.70;;;;;;5036569;28;19995;-72
2022/03/12 06:52:26;;;;;;;;;;;1.70;94.50;;;;;;5040551;28;19909;-72
2022/03/12 06:54:52;;;;;;;;;;;1.80;94.40;;;;;;5051900;28;19913;-72
2022/03/12 06:57:18;;;;;;;;;;;1.90;94.20;;;;;;5052090;28;20412;-71
2022/03/12 06:59:44;;;;;;;;;;;1.90;94.40;;;;;;5052415;28;19920;-72
2022/03/12 07:02:09;;;;;;;;;;;1.90;94.70;;;;;;5052109;28;19909;-72
2022/03/12 07:04:35;;;;;;;;;;;1.70;94.90;;;;;;5052275;28;19960;-72
2022/03/12 07:07:01;;;;;;;;;;;1.70;95.30;;;;;;5052286;28;19913;-72
2022/03/12 07:09:28;;;;;;;;;;;1.60;94.70;;;;;;5052354;28;19916;-72
2022/03/12 07:11:56;;;;;;;;;;;1.70;94.70;;;;;;5050683;28;19909;-72
2022/03/12 07:14:21;;;;;;;;;;;1.60;95.00;;;;;;5051489;28;19913;-72
2022/03/12 07:16:47;;;;;;;;;;;1.60;94.40;;;;;;5051520;28;20050;-72
2022/03/12 07:19:12;;;;;;;;;;;1.70;94.80;;;;;;5050897;28;20521;-72
2022/03/12 07:21:38;;;;;;;;;;;1.90;94.70;;;;;;5041973;28;19908;-71
2022/03/12 07:24:03;;;;;;;;;;;2.00;94.30;;;;;;5034756;28;19917;-72
2022/03/12 07:26:29;;;;;;;;;;;2.10;93.80;;;;;;5033092;28;20014;-71
2022/03/12 07:28:54;;;;;;;;;;;2.20;93.00;;;;;;5031769;28;20325;-71
2022/03/12 07:31:21;;;;;;;;;;;2.30;93.00;;;;;;5031337;28;20267;-71
2022/03/12 07:33:46;;;;;;;;;;;2.30;92.60;;;;;;5038404;28;19996;-71
2022/03/12 07:36:12;;;;;;;;;;;2.40;92.00;;;;;;5032215;28;19999;-71
2022/03/12 07:38:37;;;;;;;;;;;2.60;91.70;;;;;;5032268;28;19916;-71
2022/03/12 07:41:03;;;;;;;;;;;2.70;91.70;;;;;;5032344;28;20227;-71
2022/03/12 07:43:28;;;;;;;;;;;2.80;91.30;;;;;;5031823;28;19916;-71
2022/03/12 07:45:54;;;;;;;;;;;2.80;90.70;;;;;;5032402;28;20003;-72
2022/03/12 07:48:20;;;;;;;;;;;2.80;90.60;;;;;;5032590;28;19917;-72
2022/03/12 07:50:46;;;;;;;;;;;2.90;91.10;;;;;;5038832;28;19909;-71
2022/03/12 07:53:12;;;;;;;;;;;3.10;90.90;;;;;;5046522;28;19909;-71
2022/03/12 07:55:39;;;;;;;;;;;3.40;90.60;;;;;;5032605;28;20356;-72
2022/03/12 07:58:05;;;;;;;;;;;3.60;89.90;;;;;;5032141;28;19909;-71
2022/03/12 08:00:31;;;;;;;;;;;3.80;88.40;;;;;;5032701;28;19909;-72
2022/03/12 08:02:57;;;;;;;;;;;4.10;90.00;;;;;;5032218;28;19909;-71
2022/03/12 08:05:25;;;;;;;;;;;4.60;81.90;;;;;;5032774;28;19936;-71
2022/03/12 08:07:54;;;;;;;;;;;5.00;82.80;;;;;;5032191;28;19916;-72
2022/03/12 08:10:20;;;;;;;;;;;5.50;79.60;;;;;;5049426;28;19909;-71
2022/03/12 08:12:46;;;;;;;;;;;6.30;78.60;;;;;;5051212;28;19909;-72
2022/03/12 08:15:12;;;;;;;;;;;7.70;75.00;;;;;;5051046;28;19909;-72
2022/03/12 08:17:38;;;;;;;;;;;9.00;71.20;;;;;;5051142;28;20384;-72
2022/03/12 08:20:08;;;;;;;;;;;9.90;66.40;;;;;;5044104;28;19916;-71
2022/03/12 08:22:34;;;;;;;;;;;9.90;61.50;;;;;;5038075;28;19909;-72
2022/03/12 08:25:00;;;;;;;;;;;10.40;61.30;;;;;;5031503;28;19917;-71
2022/03/12 08:27:26;;;;;;;;;;;10.30;61.30;;;;;;5032038;28;19931;-72
2022/03/12 08:29:51;;;;;;;;;;;10.70;61.00;;;;;;5031827;28;20337;-72
2022/03/12 08:32:17;;;;;;;;;;;11.60;56.30;;;;;;5031915;28;20007;-72
2022/03/12 08:34:42;;;;;;;;;;;11.20;58.30;;;;;;5031759;28;19963;-72
2022/03/12 08:37:08;;;;;;;;;;;11.00;58.80;;;;;;5030617;28;19999;-72
2022/03/12 08:39:35;;;;;;;;;;;10.90;58.60;;;;;;5032075;28;19916;-72
2022/03/12 08:42:01;;;;;;;;;;;11.80;57.80;;;;;;5035337;28;20337;-72
2022/03/12 08:44:27;;;;;;;;;;;12.40;56.30;;;;;;5034952;28;19913;-72
2022/03/12 08:46:52;;;;;;;;;;;12.30;54.60;;;;;;5035361;28;20286;-72
2022/03/12 08:49:18;;;;;;;;;;;12.80;54.90;;;;;;5035132;28;19909;-72
2022/03/12 08:51:44;;;;;;;;;;;13.10;51.90;;;;;;5045585;28;20374;-72
2022/03/12 08:54:10;;;;;;;;;;;13.40;51.50;;;;;;5040113;28;19980;-72
2022/03/12 08:56:36;;;;;;;;;;;14.00;53.80;;;;;;5035109;28;19956;-73
2022/03/12 08:59:02;;;;;;;;;;;15.00;51.80;;;;;;5033734;28;19918;-72
2022/03/12 09:01:28;;;;;;;;;;;15.70;51.50;;;;;;5034863;28;19910;-72
2022/03/12 09:03:54;;;;;;;;;;;15.40;51.20;;;;;;5034702;28;20004;-72
2022/03/12 09:06:19;;;;;;;;;;;15.30;49.00;;;;;;5034885;28;20363;-72
2022/03/12 09:08:45;;;;;;;;;;;15.80;50.50;;;;;;5034695;28;19917;-72
2022/03/12 09:11:13;;;;;;;;;;;15.60;49.90;;;;;;5034837;28;19909;-72
2022/03/12 09:13:39;;;;;;;;;;;15.60;47.60;;;;;;5034553;28;20003;-73
2022/03/12 09:16:05;;;;;;;;;;;16.10;48.90;;;;;;5034539;28;20400;-72
2022/03/12 09:18:31;;;;;;;;;;;16.60;47.90;;;;;;5053971;28;20309;-72
2022/03/12 09:20:56;;;;;;;;;;;15.80;46.20;;;;;;5040504;28;19916;-73
2022/03/12 09:23:22;;;;;;;;;;;16.40;46.80;;;;;;5057242;28;19947;-73
2022/03/12 09:25:49;;;;;;;;;;;16.60;47.90;;;;;;5034559;28;20313;-73
2022/03/12 09:28:15;;;;;;;;;;;17.10;44.90;;;;;;5034438;28;20358;-74
2022/03/12 09:30:41;;;;;;;;;;;16.40;46.40;;;;;;5034573;28;19910;-73
2022/03/12 09:33:07;;;;;;;;;;;17.80;46.10;;;;;;5034113;28;19916;-74
2022/03/12 09:35:34;;;;;;;;;;;18.60;42.70;;;;;;5033376;28;20035;-74
2022/03/12 09:38:01;;;;;;;;;;;18.70;44.80;;;;;;5034328;28;19956;-74
2022/03/12 09:40:27;;;;;;;;;;;18.20;45.10;;;;;;5034556;28;20277;-74
2022/03/12 09:42:52;;;;;;;;;;;17.70;44.10;;;;;;5038613;28;19909;-73
2022/03/12 09:45:20;;;;;;;;;;;18.50;44.10;;;;;;5034328;28;19913;-73
2022/03/12 09:47:45;;;;;;;;;;;18.10;43.70;;;;;;5034416;28;19916;-73
2022/03/12 09:50:11;;;;;;;;;;;18.50;44.30;;;;;;5038148;28;20011;-76
2022/03/12 09:52:36;;;;;;;;;;;17.70;44.00;;;;;;5038292;28;20011;-74
2022/03/12 09:55:03;;;;;;;;;;;17.50;44.70;;;;;;5034066;28;19959;-71
2022/03/12 09:57:28;;;;;;;;;;;17.30;46.10;;;;;;5033917;28;20358;-71
2022/03/12 09:59:54;;;;;;;;;;;18.00;44.70;;;;;;5039978;28;19935;-72
2022/03/12 10:02:20;;;;;;;;;;;18.20;46.00;;;;;;5033797;28;19995;-71
2022/03/12 10:04:46;;;;;;;;;;;15.30;47.00;;;;;;5033678;28;19913;-72
2022/03/12 10:07:11;;;;;;;;;;;16.50;49.50;;;;;;5033714;28;19920;-72
2022/03/12 10:09:37;;;;;;;;;;;17.50;48.00;;;;;;5043483;28;19913;-72
2022/03/12 10:12:05;;;;;;;;;;;18.50;46.30;;;;;;5051445;28;19961;-72
2022/03/12 10:14:31;;;;;;;;;;;18.80;45.60;;;;;;5040569;28;20004;-73
2022/03/12 10:17:00;;;;;;;;;;;19.80;44.20;;;;;;5033485;28;20297;-73
2022/03/12 10:19:26;;;;;;;;;;;18.90;44.70;;;;;;5035741;28;19909;-74
2022/03/12 10:21:52;;;;;;;;;;;18.90;44.80;;;;;;5051628;28;19908;-71
2022/03/12 10:24:18;;;;;;;;;;;19.50;44.20;;;;;;5036191;28;19936;-72
2022/03/12 10:26:45;;;;;;;;;;;18.30;44.20;;;;;;5033488;28;20370;-72
2022/03/12 10:29:11;;;;;;;;;;;18.40;45.00;;;;;;5033384;28;19909;-72
2022/03/12 10:31:38;;;;;;;;;;;16.30;46.80;;;;;;5033203;28;19915;-72
2022/03/12 10:34:18;;;;;;;;;;;17.40;45.50;;;;;;5032905;28;20289;-73
2022/03/12 10:36:44;;;;;;;;;;;16.90;47.00;;;;;;5033233;28;20358;-72
2022/03/12 10:39:10;;;;;;;;;;;18.20;45.20;;;;;;5033127;28;19945;-72
2022/03/12 10:41:37;;;;;;;;;;;18.50;44.50;;;;;;5033065;28;19913;-71
2022/03/12 10:44:03;;;;;;;;;;;18.90;44.00;;;;;;5032788;28;19913;-72
2022/03/12 10:46:29;;;;;;;;;;;18.50;44.40;;;;;;5032900;28;20036;-72
2022/03/12 10:48:58;;;;;;;;;;;17.90;46.00;;;;;;5032836;28;19945;-72
2022/03/12 10:51:25;;;;;;;;;;;17.50;45.80;;;;;;5033207;28;19917;-72
2022/03/12 10:53:51;;;;;;;;;;;18.30;44.90;;;;;;5038077;28;19996;-72
2022/03/12 10:56:19;;;;;;;;;;;18.90;44.50;;;;;;5032960;28;20007;-72
2022/03/12 10:58:44;;;;;;;;;;;19.50;42.10;;;;;;5031426;28;19912;-72
2022/03/12 11:01:10;;;;;;;;;;;19.90;43.10;;;;;;5032622;28;20181;-72
2022/03/12 11:03:37;;;;;;;;;;;21.00;42.50;;;;;;5032511;28;20329;-72
2022/03/12 11:06:04;;;;;;;;;;;20.60;42.30;;;;;;5032765;28;19909;-72
2022/03/12 11:08:33;;;;;;;;;;;19.80;41.80;;;;;;5032593;28;19915;-72
2022/03/12 11:11:13;;;;;;;;;;;18.70;43.40;;;;;;5032647;28;20317;-72
2022/03/12 11:13:40;;;;;;;;;;;18.70;44.40;;;;;;5032276;28;19909;-73
2022/03/12 11:16:24;;;;;;;;;;;19.90;43.20;;;;;;5032674;28;19923;-72
2022/03/12 11:18:52;;;;;;;;;;;19.60;43.00;;;;;;5032389;28;20293;-72
2022/03/12 11:21:30;;;;;;;;;;;18.30;44.50;;;;;;5043293;28;20269;-72
2022/03/12 11:23:57;;;;;;;;;;;18.90;45.70;;;;;;5033000;28;20347;-72
2022/03/12 11:26:24;;;;;;;;;;;19.30;43.20;;;;;;5036985;28;19995;-73
2022/03/12 11:28:55;;;;;;;;;;;19.90;42.80;;;;;;5041302;28;19908;-74
2022/03/12 11:31:36;;;;;;;;;;;20.20;41.70;;;;;;5036314;28;20389;-73
2022/03/12 11:34:11;;;;;;;;;;;19.90;43.50;;;;;;5031781;28;19932;-73
2022/03/12 11:36:37;;;;;;;;;;;20.50;42.80;;;;;;5032146;28;19909;-73
2022/03/12 11:39:02;;;;;;;;;;;18.80;43.50;;;;;;5032190;28;20380;-73
2022/03/12 11:41:28;;;;;;;;;;;20.20;42.50;;;;;;5031997;28;19909;-73
2022/03/12 11:43:53;;;;;;;;;;;18.50;45.40;;;;;;5031796;28;20358;-73
2022/03/12 11:46:19;;;;;;;;;;;18.50;46.60;;;;;;5032265;28;19916;-73
2022/03/12 11:48:44;;;;;;;;;;;19.20;45.50;;;;;;5031928;28;20448;-73
2022/03/12 11:51:23;;;;;;;;;;;19.40;44.90;;;;;;5046356;28;19909;-74
2022/03/12 11:53:49;;;;;;;;;;;19.30;44.60;;;;;;5040359;28;19954;-73
2022/03/12 11:56:16;;;;;;;;;;;19.00;45.00;;;;;;5032044;28;20011;-73
2022/03/12 11:58:43;;;;;;;;;;;19.60;45.60;;;;;;5031776;28;20380;-73
2022/03/12 12:01:11;;;;;;;;;;;19.10;45.80;;;;;;5032145;28;19920;-73
2022/03/12 12:03:36;;;;;;;;;;;17.20;48.20;;;;;;5031234;28;19910;-73
2022/03/12 12:06:02;;;;;;;;;;;15.50;52.60;;;;;;5037781;28;20281;-72
2022/03/12 12:08:27;;;;;;;;;;;14.60;54.30;;;;;;5031972;28;20256;-72
2022/03/12 12:11:01;;;;;;;;;;;14.30;55.40;;;;;;5031865;28;20352;-73
2022/03/12 12:13:28;;;;;;;;;;;14.30;55.10;;;;;;5031433;28;19909;-71
2022/03/12 12:15:53;;;;;;;;;;;14.40;56.30;;;;;;5034419;28;19952;-71
2022/03/12 12:18:20;;;;;;;;;;;13.70;56.70;;;;;;5034427;28;19948;-71
2022/03/12 12:20:46;;;;;;;;;;;13.60;57.50;;;;;;5041903;28;19979;-71
2022/03/12 12:23:17;;;;;;;;;;;13.80;58.20;;;;;;5041240;28;20319;-71
2022/03/12 12:25:43;;;;;;;;;;;14.00;56.80;;;;;;5035428;28;20294;-71
2022/03/12 12:28:14;;;;;;;;;;;14.20;58.20;;;;;;5035446;28;19909;-71
2022/03/12 12:30:43;;;;;;;;;;;14.20;58.00;;;;;;5035061;28;19909;-71
2022/03/12 12:33:17;;;;;;;;;;;13.40;58.00;;;;;;5034929;28;19909;-71
2022/03/12 12:35:44;;;;;;;;;;;13.30;59.70;;;;;;5035235;28;19937;-71
2022/03/12 12:38:10;;;;;;;;;;;13.60;59.50;;;;;;5035338;28;19913;-71
2022/03/12 12:40:48;;;;;;;;;;;13.60;58.90;;;;;;5035234;28;19917;-71
2022/03/12 12:43:18;;;;;;;;;;;13.20;58.50;;;;;;5047624;28;20382;-71
2022/03/12 12:45:52;;;;;;;;;;;13.10;59.90;;;;;;5054107;28;19913;-71
2022/03/12 12:48:19;;;;;;;;;;;13.10;60.00;;;;;;5054169;28;19909;-71
2022/03/12 12:51:05;;;;;;;;;;;13.10;60.20;;;;;;5045817;28;19909;-71
2022/03/12 12:53:35;;;;;;;;;;;12.70;59.50;;;;;;5042273;28;19960;-71
2022/03/12 12:56:17;;;;;;;;;;;12.90;59.60;;;;;;5034891;28;20326;-71
2022/03/12 12:58:52;;;;;;;;;;;13.00;59.50;;;;;;5052724;28;19909;-71
2022/03/12 13:01:25;;;;;;;;;;;13.20;58.80;;;;;;5054186;28;19915;-72
2022/03/12 13:03:51;;;;;;;;;;;13.20;57.50;;;;;;5053865;28;19913;-71
2022/03/12 13:06:35;;;;;;;;;;;13.30;58.70;;;;;;5054409;28;20369;-71
2022/03/12 13:09:05;;;;;;;;;;;13.20;58.10;;;;;;5054279;28;19986;-71
2022/03/12 13:11:32;;;;;;;;;;;13.20;58.60;;;;;;5054652;28;20314;-71
2022/03/12 13:13:59;;;;;;;;;;;13.40;58.00;;;;;;5052726;28;19931;-71
2022/03/12 13:16:25;;;;;;;;;;;13.40;57.70;;;;;;5054015;28;19971;-71
2022/03/12 13:18:51;;;;;;;;;;;13.20;58.10;;;;;;5053843;28;19947;-70
2022/03/12 13:21:27;;;;;;;;;;;13.20;58.40;;;;;;5038891;28;19916;-71
2022/03/12 13:23:53;;;;;;;;;;;13.30;59.40;;;;;;5040118;28;20397;-70
2022/03/12 13:26:18;;;;;;;;;;;13.60;58.10;;;;;;5033734;28;19909;-70
2022/03/12 13:28:50;;;;;;;;;;;13.50;58.40;;;;;;5034729;28;19909;-72
2022/03/12 13:31:16;;;;;;;;;;;13.10;59.30;;;;;;5034817;28;19944;-72
2022/03/12 13:33:42;;;;;;;;;;;13.10;59.50;;;;;;5034462;28;19991;-70
2022/03/12 13:36:21;;;;;;;;;;;13.20;59.30;;;;;;5034764;28;19909;-70
2022/03/12 13:38:48;;;;;;;;;;;13.30;59.20;;;;;;5033917;28;19917;-70
2022/03/12 13:41:14;;;;;;;;;;;13.20;59.20;;;;;;5034109;28;19916;-71
2022/03/12 13:43:41;;;;;;;;;;;13.10;60.70;;;;;;5046697;28;19909;-70
2022/03/12 13:46:06;;;;;;;;;;;13.00;60.80;;;;;;5052861;28;19909;-70
2022/03/12 13:48:31;;;;;;;;;;;13.20;60.60;;;;;;5051622;28;20007;-70
2022/03/12 13:50:57;;;;;;;;;;;13.10;59.90;;;;;;5040937;28;20367;-70
2022/03/12 13:53:29;;;;;;;;;;;13.10;60.80;;;;;;5046898;28;19909;-72
2022/03/12 13:56:04;;;;;;;;;;;13.00;61.00;;;;;;5033851;28;20378;-70
2022/03/12 13:58:30;;;;;;;;;;;13.00;60.80;;;;;;5046456;28;20000;-71
2022/03/12 14:00:58;;;;;;;;;;;12.90;61.40;;;;;;5052640;28;20365;-71
2022/03/12 14:03:27;;;;;;;;;;;13.00;61.20;;;;;;5052428;28;19909;-70
2022/03/12 14:05:52;;;;;;;;;;;13.10;60.70;;;;;;5052792;28;19959;-71
2022/03/12 14:08:19;;;;;;;;;;;13.20;60.30;;;;;;5052863;28;19952;-71
2022/03/12 14:10:45;;;;;;;;;;;13.30;60.40;;;;;;5052525;28;20370;-71
2022/03/12 14:13:11;;;;;;;;;;;13.00;60.50;;;;;;5052188;28;19970;-70
2022/03/12 14:15:36;;;;;;;;;;;13.10;60.20;;;;;;5052763;28;20353;-71
2022/03/12 14:18:05;;;;;;;;;;;13.10;60.90;;;;;;5053141;28;19916;-71
2022/03/12 14:20:34;;;;;;;;;;;13.10;60.10;;;;;;5045502;28;19916;-71